Time,TemperatureF,DewpointF,PressureIn,WindDirection,WindDirectionDegrees,WindSpeedMPH,WindSpeedGustMPH,Humidity,HourlyPrecipIn,Conditions,Clouds,dailyrainin,SoftwareType,DateUTC
2013-01-25 00:03:00,29.1,23.1,30.48,NW,317,0.0,2.0,78,0.00,,,0.00,Wunderground v.1.15,2013-01-25 07:03:00,
2013-01-25 00:08:00,29.1,23.1,30.48,NW,317,0.0,2.0,78,0.00,,,0.00,Wunderground v.1.15,2013-01-25 07:08:00,
2013-01-25 00:13:00,29.1,23.1,30.48,NW,317,0.0,0.0,78,0.00,,,0.00,Wunderground v.1.15,2013-01-25 07:13:00,
2013-01-25 00:18:00,29.1,23.1,30.45,NW,317,0.0,0.0,78,0.00,,,0.00,Wunderground v.1.15,2013-01-25 07:18:00,
2013-01-25 00:23:00,29.1,23.1,30.45,NW,317,0.0,0.0,78,0.00,,,0.00,Wunderground v.1.15,2013-01-25 07:23:00,
2013-01-25 00:28:00,29.1,23.1,30.45,NW,317,0.0,0.0,78,0.00,,,0.00,Wunderground v.1.15,2013-01-25 07:28:00,
2013-01-25 00:33:00,29.1,23.4,30.45,NW,317,0.0,0.0,79,0.00,,,0.00,Wunderground v.1.15,2013-01-25 07:33:00,
2013-01-25 00:38:00,29.0,23.3,30.45,NW,317,0.0,2.0,79,0.00,,,0.00,Wunderground v.1.15,2013-01-25 07:38:00,
2013-01-25 00:43:00,29.0,23.3,30.45,NW,317,0.0,0.0,79,0.00,,,0.00,Wunderground v.1.15,2013-01-25 07:43:00,
2013-01-25 00:48:00,29.0,23.3,30.45,NW,317,0.0,0.0,79,0.00,,,0.00,Wunderground v.1.15,2013-01-25 07:48:00,
2013-01-25 00:53:00,28.8,23.1,30.45,NW,317,0.0,0.0,79,0.00,,,0.00,Wunderground v.1.15,2013-01-25 07:53:00,
2013-01-25 00:58:00,28.7,23.0,30.45,NW,317,0.0,0.0,79,0.00,,,0.00,Wunderground v.1.15,2013-01-25 07:58:00,
2013-01-25 01:03:00,28.7,23.0,30.44,NW,317,0.0,0.0,79,0.00,,,0.00,Wunderground v.1.15,2013-01-25 08:03:00,
2013-01-25 01:08:00,28.5,22.8,30.44,NW,317,0.0,0.0,79,0.00,,,0.00,Wunderground v.1.15,2013-01-25 08:08:00,
2013-01-25 01:14:00,28.4,23.0,30.44,NW,317,0.0,0.0,80,0.00,,,0.00,Wunderground v.1.15,2013-01-25 08:14:00,
2013-01-25 01:19:00,28.2,22.8,30.44,NW,317,0.0,0.0,80,0.00,,,0.00,Wunderground v.1.15,2013-01-25 08:19:00,
2013-01-25 01:24:00,28.1,22.7,30.44,NW,317,0.0,0.0,80,0.00,,,0.00,Wunderground v.1.15,2013-01-25 08:24:00,
2013-01-25 01:29:00,28.1,22.7,30.44,NW,317,0.0,0.0,80,0.00,,,0.00,Wunderground v.1.15,2013-01-25 08:29:00,
2013-01-25 01:34:00,28.1,22.7,30.45,NW,317,0.0,0.0,80,0.00,,,0.00,Wunderground v.1.15,2013-01-25 08:34:00,
2013-01-25 01:39:00,28.1,22.7,30.45,NW,317,0.0,0.0,80,0.00,,,0.00,Wunderground v.1.15,2013-01-25 08:39:00,
2013-01-25 01:44:00,28.1,23.0,30.45,SE,144,0.0,0.0,81,0.00,,,0.00,Wunderground v.1.15,2013-01-25 08:44:00,
2013-01-25 01:49:00,28.1,23.0,30.45,SE,144,0.0,0.0,81,0.00,,,0.00,Wunderground v.1.15,2013-01-25 08:49:00,
2013-01-25 01:54:00,28.1,23.0,30.45,SE,144,0.0,0.0,81,0.00,,,0.00,Wunderground v.1.15,2013-01-25 08:54:00,
2013-01-25 01:59:00,28.1,23.0,30.45,SE,144,0.0,0.0,81,0.00,,,0.00,Wunderground v.1.15,2013-01-25 08:59:00,
2013-01-25 02:04:00,28.1,23.0,30.45,SE,144,0.0,0.0,81,0.00,,,0.00,Wunderground v.1.15,2013-01-25 09:04:00,
2013-01-25 02:09:00,28.1,23.0,30.45,SE,144,0.0,0.0,81,0.00,,,0.00,Wunderground v.1.15,2013-01-25 09:09:00,
2013-01-25 02:14:00,28.1,23.0,30.45,SE,144,0.0,0.0,81,0.00,,,0.00,Wunderground v.1.15,2013-01-25 09:14:00,
2013-01-25 02:19:00,28.2,23.1,30.45,SE,144,0.0,0.0,81,0.00,,,0.00,Wunderground v.1.15,2013-01-25 09:19:00,
2013-01-25 02:24:00,28.2,23.1,30.45,SE,144,0.0,0.0,81,0.00,,,0.00,Wunderground v.1.15,2013-01-25 09:24:00,
2013-01-25 02:29:00,28.2,23.1,30.45,SE,144,0.0,0.0,81,0.00,,,0.00,Wunderground v.1.15,2013-01-25 09:29:00,
2013-01-25 02:34:00,28.2,23.1,30.45,SE,144,0.0,0.0,81,0.00,,,0.00,Wunderground v.1.15,2013-01-25 09:34:00,
2013-01-25 02:39:00,28.2,23.1,30.45,SE,144,0.0,0.0,81,0.00,,,0.00,Wunderground v.1.15,2013-01-25 09:39:00,
2013-01-25 02:44:00,28.2,23.1,30.45,SE,144,0.0,0.0,81,0.00,,,0.00,Wunderground v.1.15,2013-01-25 09:44:00,
2013-01-25 02:49:00,28.4,23.3,30.45,SE,144,0.0,0.0,81,0.00,,,0.00,Wunderground v.1.15,2013-01-25 09:49:00,
2013-01-25 02:54:00,28.4,23.3,30.45,SE,144,0.0,0.0,81,0.00,,,0.00,Wunderground v.1.15,2013-01-25 09:54:00,
2013-01-25 02:59:00,28.5,23.7,30.45,SE,144,0.0,0.0,82,0.00,,,0.00,Wunderground v.1.15,2013-01-25 09:59:00,
2013-01-25 03:04:00,28.7,23.9,30.43,SE,144,0.0,0.0,82,0.00,,,0.00,Wunderground v.1.15,2013-01-25 10:04:00,
2013-01-25 03:09:00,28.7,24.2,30.43,SE,144,0.0,0.0,83,0.00,,,0.00,Wunderground v.1.15,2013-01-25 10:09:00,
2013-01-25 03:14:00,28.7,24.2,30.43,SE,144,0.0,0.0,83,0.00,,,0.00,Wunderground v.1.15,2013-01-25 10:14:00,
2013-01-25 03:19:00,28.7,24.2,30.43,SE,144,0.0,0.0,83,0.00,,,0.00,Wunderground v.1.15,2013-01-25 10:19:00,
2013-01-25 03:24:00,28.7,24.5,30.43,SE,144,0.0,0.0,84,0.00,,,0.00,Wunderground v.1.15,2013-01-25 10:24:00,
2013-01-25 03:29:00,28.7,24.5,30.43,SE,144,0.0,0.0,84,0.00,,,0.00,Wunderground v.1.15,2013-01-25 10:29:00,
2013-01-25 03:34:00,28.7,24.5,30.42,SE,144,0.0,0.0,84,0.00,,,0.00,Wunderground v.1.15,2013-01-25 10:34:00,
2013-01-25 03:39:00,28.7,24.5,30.42,SE,144,0.0,0.0,84,0.00,,,0.00,Wunderground v.1.15,2013-01-25 10:39:00,
2013-01-25 03:44:00,28.7,24.5,30.42,SE,144,0.0,0.0,84,0.00,,,0.00,Wunderground v.1.15,2013-01-25 10:44:00,
2013-01-25 03:49:00,28.7,24.8,30.41,SE,144,0.0,0.0,85,0.00,,,0.00,Wunderground v.1.15,2013-01-25 10:49:00,
2013-01-25 03:54:00,28.7,24.8,30.41,SE,144,0.0,0.0,85,0.00,,,0.00,Wunderground v.1.15,2013-01-25 10:54:00,
2013-01-25 03:59:00,28.7,24.8,30.41,SE,144,0.0,0.0,85,0.00,,,0.00,Wunderground v.1.15,2013-01-25 10:59:00,
2013-01-25 04:04:00,28.7,24.8,30.41,SE,144,0.0,0.0,85,0.00,,,0.00,Wunderground v.1.15,2013-01-25 11:04:00,
2013-01-25 04:09:00,28.7,24.8,30.41,SE,144,0.0,0.0,85,0.00,,,0.00,Wunderground v.1.15,2013-01-25 11:09:00,
2013-01-25 04:14:00,28.5,24.6,30.41,SE,144,0.0,0.0,85,0.00,,,0.00,Wunderground v.1.15,2013-01-25 11:14:00,
2013-01-25 04:19:00,28.5,24.6,30.40,SE,144,0.0,0.0,85,0.00,,,0.00,Wunderground v.1.15,2013-01-25 11:19:00,
2013-01-25 04:24:00,28.5,24.6,30.40,SE,144,0.0,0.0,85,0.00,,,0.00,Wunderground v.1.15,2013-01-25 11:24:00,
2013-01-25 04:29:00,28.5,24.6,30.40,SE,144,0.0,0.0,85,0.00,,,0.00,Wunderground v.1.15,2013-01-25 11:29:00,
2013-01-25 04:34:00,28.5,24.8,30.40,SE,144,0.0,0.0,86,0.00,,,0.00,Wunderground v.1.15,2013-01-25 11:34:00,
2013-01-25 04:39:00,28.5,24.8,30.40,SE,144,0.0,0.0,86,0.00,,,0.00,Wunderground v.1.15,2013-01-25 11:39:00,
2013-01-25 04:44:00,28.5,24.8,30.40,SE,144,0.0,0.0,86,0.00,,,0.00,Wunderground v.1.15,2013-01-25 11:44:00,
2013-01-25 04:49:00,28.4,24.7,30.40,SE,144,0.0,0.0,86,0.00,,,0.00,Wunderground v.1.15,2013-01-25 11:49:00,
2013-01-25 04:54:00,28.4,24.7,30.40,SE,144,0.0,0.0,86,0.00,,,0.00,Wunderground v.1.15,2013-01-25 11:54:00,
2013-01-25 04:59:00,28.4,24.7,30.40,SE,144,0.0,0.0,86,0.00,,,0.00,Wunderground v.1.15,2013-01-25 11:59:00,
2013-01-25 05:04:00,28.4,24.7,30.41,SE,144,0.0,0.0,86,0.00,,,0.00,Wunderground v.1.15,2013-01-25 12:04:00,
2013-01-25 05:09:00,28.4,24.7,30.41,SE,144,0.0,0.0,86,0.00,,,0.00,Wunderground v.1.15,2013-01-25 12:09:00,
2013-01-25 05:14:00,28.4,24.7,30.41,SE,144,0.0,0.0,86,0.00,,,0.00,Wunderground v.1.15,2013-01-25 12:14:00,
2013-01-25 05:19:00,28.4,24.7,30.42,SE,144,0.0,0.0,86,0.00,,,0.00,Wunderground v.1.15,2013-01-25 12:19:00,
2013-01-25 05:24:00,28.4,24.7,30.42,SE,144,0.0,0.0,86,0.00,,,0.00,Wunderground v.1.15,2013-01-25 12:24:00,
2013-01-25 05:29:00,28.4,25.0,30.42,SE,144,0.0,0.0,87,0.00,,,0.00,Wunderground v.1.15,2013-01-25 12:29:00,
2013-01-25 05:34:00,28.4,25.0,30.42,SE,144,0.0,0.0,87,0.00,,,0.00,Wunderground v.1.15,2013-01-25 12:34:00,
2013-01-25 05:39:00,28.4,25.0,30.42,SE,144,0.0,0.0,87,0.00,,,0.00,Wunderground v.1.15,2013-01-25 12:39:00,
2013-01-25 05:44:00,28.4,25.0,30.42,SE,144,0.0,0.0,87,0.00,,,0.00,Wunderground v.1.15,2013-01-25 12:44:00,
2013-01-25 05:49:00,28.4,25.0,30.42,SE,144,0.0,0.0,87,0.00,,,0.00,Wunderground v.1.15,2013-01-25 12:49:00,
2013-01-25 05:54:00,28.4,25.0,30.42,SE,144,0.0,0.0,87,0.00,,,0.00,Wunderground v.1.15,2013-01-25 12:54:00,
2013-01-25 05:59:00,28.4,25.0,30.42,SE,144,0.0,0.0,87,0.00,,,0.00,Wunderground v.1.15,2013-01-25 12:59:00,
2013-01-25 06:04:00,28.4,25.0,30.43,SE,144,0.0,0.0,87,0.00,,,0.00,Wunderground v.1.15,2013-01-25 13:04:00,
2013-01-25 06:09:00,28.4,25.0,30.43,SE,144,0.0,0.0,87,0.00,,,0.00,Wunderground v.1.15,2013-01-25 13:09:00,
2013-01-25 06:14:00,28.4,25.0,30.43,SE,144,0.0,0.0,87,0.00,,,0.00,Wunderground v.1.15,2013-01-25 13:14:00,
2013-01-25 06:19:00,28.4,25.0,30.43,SE,144,0.0,0.0,87,0.00,,,0.00,Wunderground v.1.15,2013-01-25 13:19:00,
2013-01-25 06:24:00,28.4,25.0,30.43,SE,144,0.0,0.0,87,0.00,,,0.00,Wunderground v.1.15,2013-01-25 13:24:00,
2013-01-25 06:29:00,28.4,25.0,30.43,SE,144,0.0,0.0,87,0.00,,,0.00,Wunderground v.1.15,2013-01-25 13:29:00,
2013-01-25 06:34:00,28.4,25.0,30.44,SE,144,0.0,0.0,87,0.00,,,0.00,Wunderground v.1.15,2013-01-25 13:34:00,
2013-01-25 06:40:00,28.4,25.0,30.44,SE,144,0.0,0.0,87,0.00,,,0.00,Wunderground v.1.15,2013-01-25 13:40:00,
2013-01-25 06:45:00,28.5,25.1,30.44,SE,144,0.0,0.0,87,0.00,,,0.00,Wunderground v.1.15,2013-01-25 13:45:00,
2013-01-25 06:50:00,28.5,25.1,30.44,SE,144,0.0,0.0,87,0.00,,,0.00,Wunderground v.1.15,2013-01-25 13:50:00,
2013-01-25 06:55:00,28.5,25.1,30.44,SE,144,0.0,0.0,87,0.00,,,0.00,Wunderground v.1.15,2013-01-25 13:55:00,
2013-01-25 07:00:00,28.5,25.1,30.44,SE,144,0.0,0.0,87,0.00,,,0.00,Wunderground v.1.15,2013-01-25 14:00:00,
2013-01-25 07:05:00,28.5,25.1,30.44,SE,144,0.0,0.0,87,0.00,,,0.00,Wunderground v.1.15,2013-01-25 14:05:00,
2013-01-25 07:10:00,28.5,25.1,30.44,SE,144,0.0,0.0,87,0.00,,,0.00,Wunderground v.1.15,2013-01-25 14:10:00,
2013-01-25 07:15:00,28.5,25.1,30.44,SE,144,0.0,0.0,87,0.00,,,0.00,Wunderground v.1.15,2013-01-25 14:15:00,
2013-01-25 07:20:00,28.5,25.1,30.43,SE,144,0.0,0.0,87,0.00,,,0.00,Wunderground v.1.15,2013-01-25 14:20:00,
2013-01-25 07:25:00,28.5,25.1,30.43,SE,144,0.0,0.0,87,0.00,,,0.00,Wunderground v.1.15,2013-01-25 14:25:00,
2013-01-25 07:30:00,28.5,25.1,30.43,SE,144,0.0,0.0,87,0.00,,,0.00,Wunderground v.1.15,2013-01-25 14:30:00,
2013-01-25 07:35:00,28.7,25.3,30.42,SE,144,0.0,0.0,87,0.00,,,0.00,Wunderground v.1.15,2013-01-25 14:35:00,
2013-01-25 07:40:00,28.7,25.3,30.42,SE,144,0.0,0.0,87,0.00,,,0.00,Wunderground v.1.15,2013-01-25 14:40:00,
2013-01-25 07:45:00,28.8,25.4,30.42,SE,144,0.0,0.0,87,0.00,,,0.00,Wunderground v.1.15,2013-01-25 14:45:00,
2013-01-25 07:50:00,28.8,25.4,30.42,SE,144,0.0,0.0,87,0.00,,,0.00,Wunderground v.1.15,2013-01-25 14:50:00,
2013-01-25 07:55:00,29.0,25.6,30.42,SE,144,0.0,0.0,87,0.00,,,0.00,Wunderground v.1.15,2013-01-25 14:55:00,
2013-01-25 08:00:00,29.0,25.6,30.42,SE,144,0.0,0.0,87,0.00,,,0.00,Wunderground v.1.15,2013-01-25 15:00:00,
2013-01-25 08:05:00,29.1,25.7,30.43,SE,144,0.0,0.0,87,0.00,,,0.00,Wunderground v.1.15,2013-01-25 15:05:00,
2013-01-25 08:10:00,29.3,25.9,30.43,SE,144,0.0,0.0,87,0.00,,,0.00,Wunderground v.1.15,2013-01-25 15:10:00,
2013-01-25 08:15:00,29.3,25.9,30.43,SE,144,0.0,0.0,87,0.00,,,0.00,Wunderground v.1.15,2013-01-25 15:15:00,
2013-01-25 08:20:00,29.4,26.0,30.43,SE,144,0.0,0.0,87,0.00,,,0.00,Wunderground v.1.15,2013-01-25 15:20:00,
2013-01-25 08:25:00,29.4,26.0,30.43,SE,144,0.0,0.0,87,0.00,,,0.00,Wunderground v.1.15,2013-01-25 15:25:00,
2013-01-25 08:30:00,29.4,26.0,30.43,SE,144,0.0,0.0,87,0.00,,,0.00,Wunderground v.1.15,2013-01-25 15:30:00,
2013-01-25 08:35:00,29.5,26.1,30.43,SE,144,0.0,0.0,87,0.00,,,0.00,Wunderground v.1.15,2013-01-25 15:35:00,
2013-01-25 08:40:00,29.7,26.0,30.43,SE,144,0.0,0.0,86,0.00,,,0.00,Wunderground v.1.15,2013-01-25 15:40:00,
2013-01-25 08:45:00,29.7,26.0,30.43,SE,144,0.0,0.0,86,0.00,,,0.00,Wunderground v.1.15,2013-01-25 15:45:00,
2013-01-25 08:50:00,29.8,26.1,30.43,SE,144,0.0,0.0,86,0.00,,,0.00,Wunderground v.1.15,2013-01-25 15:50:00,
2013-01-25 08:55:00,30.0,26.3,30.43,SE,144,0.0,0.0,86,0.00,,,0.00,Wunderground v.1.15,2013-01-25 15:55:00,
2013-01-25 09:00:00,30.1,26.1,30.43,SE,144,0.0,0.0,85,0.00,,,0.00,Wunderground v.1.15,2013-01-25 16:00:00,
2013-01-25 09:05:00,30.1,26.1,30.43,SE,144,0.0,0.0,85,0.00,,,0.00,Wunderground v.1.15,2013-01-25 16:05:00,
2013-01-25 09:10:00,30.3,26.3,30.43,SE,144,0.0,0.0,85,0.00,,,0.00,Wunderground v.1.15,2013-01-25 16:10:00,
2013-01-25 09:15:00,30.4,26.1,30.43,SE,144,0.0,0.0,84,0.00,,,0.00,Wunderground v.1.15,2013-01-25 16:15:00,
2013-01-25 09:20:00,30.7,26.4,30.42,SE,144,0.0,0.0,84,0.00,,,0.00,Wunderground v.1.15,2013-01-25 16:20:00,
2013-01-25 09:25:00,30.9,26.3,30.42,SE,144,0.0,0.0,83,0.00,,,0.00,Wunderground v.1.15,2013-01-25 16:25:00,
2013-01-25 09:30:00,31.0,26.4,30.42,SE,144,0.0,0.0,83,0.00,,,0.00,Wunderground v.1.15,2013-01-25 16:30:00,
2013-01-25 09:35:00,31.2,26.3,30.43,SE,144,0.0,0.0,82,0.00,,,0.00,Wunderground v.1.15,2013-01-25 16:35:00,
2013-01-25 09:40:00,31.5,26.6,30.43,SE,144,0.0,0.0,82,0.00,,,0.00,Wunderground v.1.15,2013-01-25 16:40:00,
2013-01-25 09:45:00,31.6,26.4,30.43,SE,144,0.0,0.0,81,0.00,,,0.00,Wunderground v.1.15,2013-01-25 16:45:00,
2013-01-25 09:50:00,31.6,26.1,30.43,SE,144,0.0,0.0,80,0.00,,,0.00,Wunderground v.1.15,2013-01-25 16:50:00,
2013-01-25 09:55:00,31.6,25.8,30.43,SE,144,0.0,0.0,79,0.00,,,0.00,Wunderground v.1.15,2013-01-25 16:55:00,
2013-01-25 10:00:00,31.5,25.7,30.43,SE,144,0.0,0.0,79,0.00,,,0.00,Wunderground v.1.15,2013-01-25 17:00:00,
2013-01-25 10:05:00,31.5,25.7,30.43,SE,144,0.0,0.0,79,0.00,,,0.00,Wunderground v.1.15,2013-01-25 17:05:00,
2013-01-25 10:10:00,31.6,25.8,30.43,SE,144,0.0,0.0,79,0.00,,,0.00,Wunderground v.1.15,2013-01-25 17:10:00,
2013-01-25 10:15:00,31.9,26.1,30.43,SE,144,0.0,0.0,79,0.00,,,0.00,Wunderground v.1.15,2013-01-25 17:15:00,
2013-01-25 10:20:00,32.2,26.4,30.44,SE,144,1.0,2.0,79,0.00,,,0.00,Wunderground v.1.15,2013-01-25 17:20:00,
2013-01-25 10:25:00,32.7,26.6,30.44,SE,144,0.0,2.0,78,0.00,,,0.00,Wunderground v.1.15,2013-01-25 17:25:00,
2013-01-25 10:30:00,32.7,26.3,30.43,SE,144,0.0,1.0,77,0.00,,,0.00,Wunderground v.1.15,2013-01-25 17:30:00,
2013-01-25 10:35:00,32.8,26.4,30.43,SE,145,0.0,3.0,77,0.00,,,0.00,Wunderground v.1.15,2013-01-25 17:35:00,
2013-01-25 10:40:00,32.7,26.0,30.43,SE,144,3.0,3.0,76,0.00,,,0.00,Wunderground v.1.15,2013-01-25 17:40:00,
2013-01-25 10:45:00,32.5,25.8,30.43,SE,144,1.0,3.0,76,0.00,,,0.00,Wunderground v.1.15,2013-01-25 17:45:00,
2013-01-25 10:50:00,32.5,26.1,30.43,SE,144,0.0,2.0,77,0.00,,,0.00,Wunderground v.1.15,2013-01-25 17:50:00,
2013-01-25 10:55:00,32.8,26.1,30.43,SE,145,2.0,3.0,76,0.00,,,0.00,Wunderground v.1.15,2013-01-25 17:55:00,
2013-01-25 11:00:00,33.1,26.0,30.42,WSW,246,0.0,3.0,75,0.00,,,0.00,Wunderground v.1.15,2013-01-25 18:00:00,
2013-01-25 11:06:00,33.2,26.1,30.42,WSW,246,1.0,3.0,75,0.00,,,0.00,Wunderground v.1.15,2013-01-25 18:06:00,
2013-01-25 11:11:00,33.2,26.1,30.42,WSW,248,0.0,2.0,75,0.00,,,0.00,Wunderground v.1.15,2013-01-25 18:11:00,
2013-01-25 11:16:00,33.5,26.4,30.42,WSW,248,0.0,3.0,75,0.00,,,0.00,Wunderground v.1.15,2013-01-25 18:16:00,
2013-01-25 11:21:00,33.7,26.3,30.42,WSW,248,0.0,2.0,74,0.00,,,0.00,Wunderground v.1.15,2013-01-25 18:21:00,
2013-01-25 11:26:00,33.8,26.4,30.42,WSW,248,1.0,3.0,74,0.00,,,0.00,Wunderground v.1.15,2013-01-25 18:26:00,
2013-01-25 11:31:00,33.7,26.3,30.42,WSW,249,0.0,1.0,74,0.00,,,0.00,Wunderground v.1.15,2013-01-25 18:31:00,
2013-01-25 11:36:00,33.5,26.1,30.42,West,266,2.0,4.0,74,0.00,,,0.00,Wunderground v.1.15,2013-01-25 18:36:00,
2013-01-25 11:41:00,33.4,26.0,30.42,WNW,290,1.0,2.0,74,0.00,,,0.00,Wunderground v.1.15,2013-01-25 18:41:00,
2013-01-25 11:46:00,33.5,26.4,30.40,WNW,290,2.0,2.0,75,0.00,,,0.00,Wunderground v.1.15,2013-01-25 18:46:00,
2013-01-25 11:51:00,33.7,26.6,30.40,WNW,291,1.0,2.0,75,0.00,,,0.00,Wunderground v.1.15,2013-01-25 18:51:00,
2013-01-25 11:56:00,33.8,26.7,30.40,WNW,291,0.0,2.0,75,0.00,,,0.00,Wunderground v.1.15,2013-01-25 18:56:00,
2013-01-25 12:01:00,34.0,27.2,30.40,WNW,291,0.0,1.0,76,0.00,,,0.00,Wunderground v.1.15,2013-01-25 19:01:00,
2013-01-25 12:06:00,34.0,26.9,30.40,WNW,291,0.0,3.0,75,0.00,,,0.01,Wunderground v.1.15,2013-01-25 19:06:00,
2013-01-25 12:11:00,33.7,26.6,30.40,WNW,291,1.0,2.0,75,0.00,,,0.01,Wunderground v.1.15,2013-01-25 19:11:00,
2013-01-25 12:16:00,33.4,26.3,30.39,WNW,291,3.0,4.0,75,0.00,,,0.01,Wunderground v.1.15,2013-01-25 19:16:00,
2013-01-25 12:21:00,33.2,26.5,30.39,WNW,291,2.0,2.0,76,0.00,,,0.01,Wunderground v.1.15,2013-01-25 19:21:00,
2013-01-25 12:26:00,33.4,26.6,30.39,WNW,291,2.0,3.0,76,0.00,,,0.01,Wunderground v.1.15,2013-01-25 19:26:00,
2013-01-25 12:31:00,33.2,26.5,30.38,WNW,299,0.0,1.0,76,0.00,,,0.01,Wunderground v.1.15,2013-01-25 19:31:00,
2013-01-25 12:36:00,33.4,26.6,30.38,WNW,299,0.0,2.0,76,0.00,,,0.01,Wunderground v.1.15,2013-01-25 19:36:00,
2013-01-25 12:41:00,33.4,26.6,30.38,WNW,299,2.0,3.0,76,0.00,,,0.01,Wunderground v.1.15,2013-01-25 19:41:00,
2013-01-25 12:46:00,33.5,26.7,30.37,WNW,299,0.0,3.0,76,0.00,,,0.01,Wunderground v.1.15,2013-01-25 19:46:00,
2013-01-25 12:51:00,33.5,26.7,30.37,WNW,299,0.0,1.0,76,0.00,,,0.01,Wunderground v.1.15,2013-01-25 19:51:00,
2013-01-25 12:56:00,33.5,26.7,30.37,WNW,299,0.0,1.0,76,0.00,,,0.01,Wunderground v.1.15,2013-01-25 19:56:00,
2013-01-25 13:01:00,33.8,27.4,30.37,WNW,299,1.0,1.0,77,0.00,,,0.01,Wunderground v.1.15,2013-01-25 20:01:00,
2013-01-25 13:06:00,34.3,27.5,30.37,WNW,299,0.0,2.0,76,0.00,,,0.01,Wunderground v.1.15,2013-01-25 20:06:00,
2013-01-25 13:11:00,34.6,27.8,30.37,WNW,299,0.0,0.0,76,0.00,,,0.01,Wunderground v.1.15,2013-01-25 20:11:00,
2013-01-25 13:16:00,34.4,27.3,30.37,WNW,299,0.0,4.0,75,0.00,,,0.01,Wunderground v.1.15,2013-01-25 20:16:00,
2013-01-25 13:21:00,34.3,27.2,30.37,WNW,299,0.0,1.0,75,0.00,,,0.01,Wunderground v.1.15,2013-01-25 20:21:00,
2013-01-25 13:26:00,34.1,27.0,30.37,WNW,299,2.0,3.0,75,0.00,,,0.01,Wunderground v.1.15,2013-01-25 20:26:00,
2013-01-25 13:31:00,34.0,26.9,30.36,WNW,299,1.0,1.0,75,0.00,,,0.01,Wunderground v.1.15,2013-01-25 20:31:00,
2013-01-25 13:36:00,33.8,26.7,30.36,WNW,299,2.0,3.0,75,0.00,,,0.01,Wunderground v.1.15,2013-01-25 20:36:00,
2013-01-25 13:41:00,33.8,27.0,30.36,WNW,299,0.0,1.0,76,0.00,,,0.01,Wunderground v.1.15,2013-01-25 20:41:00,
2013-01-25 13:46:00,33.7,26.9,30.36,WNW,299,0.0,2.0,76,0.00,,,0.01,Wunderground v.1.15,2013-01-25 20:46:00,
2013-01-25 13:51:00,33.7,26.9,30.36,WNW,299,0.0,3.0,76,0.00,,,0.01,Wunderground v.1.15,2013-01-25 20:51:00,
2013-01-25 13:56:00,33.8,27.4,30.36,WNW,299,0.0,3.0,77,0.00,,,0.01,Wunderground v.1.15,2013-01-25 20:56:00,
2013-01-25 14:01:00,34.0,27.5,30.35,WNW,299,0.0,2.0,77,0.00,,,0.01,Wunderground v.1.15,2013-01-25 21:01:00,
2013-01-25 14:06:00,33.8,27.4,30.35,WNW,299,0.0,2.0,77,0.00,,,0.01,Wunderground v.1.15,2013-01-25 21:06:00,
2013-01-25 14:11:00,33.7,27.3,30.35,WNW,299,0.0,2.0,77,0.00,,,0.01,Wunderground v.1.15,2013-01-25 21:11:00,
2013-01-25 14:16:00,33.5,27.4,30.35,WNW,299,0.0,2.0,78,0.00,,,0.01,Wunderground v.1.15,2013-01-25 21:16:00,
2013-01-25 14:21:00,33.4,27.3,30.35,WNW,299,0.0,1.0,78,0.00,,,0.01,Wunderground v.1.15,2013-01-25 21:21:00,
2013-01-25 14:26:00,33.4,27.3,30.35,WNW,299,1.0,2.0,78,0.00,,,0.01,Wunderground v.1.15,2013-01-25 21:26:00,
2013-01-25 14:31:00,33.5,27.4,30.35,WNW,299,0.0,0.0,78,0.00,,,0.01,Wunderground v.1.15,2013-01-25 21:31:00,
2013-01-25 14:36:00,33.7,27.6,30.35,WNW,299,0.0,2.0,78,0.00,,,0.01,Wunderground v.1.15,2013-01-25 21:36:00,
2013-01-25 14:41:00,33.7,27.6,30.35,WNW,299,0.0,0.0,78,0.00,,,0.01,Wunderground v.1.15,2013-01-25 21:41:00,
2013-01-25 14:46:00,33.7,27.6,30.35,WNW,299,0.0,0.0,78,0.00,,,0.01,Wunderground v.1.15,2013-01-25 21:46:00,
2013-01-25 14:51:00,33.7,27.6,30.35,WNW,299,0.0,0.0,78,0.00,,,0.01,Wunderground v.1.15,2013-01-25 21:51:00,
2013-01-25 14:56:00,33.8,27.7,30.35,WNW,299,0.0,2.0,78,0.00,,,0.01,Wunderground v.1.15,2013-01-25 21:56:00,
2013-01-25 15:01:00,34.0,27.9,30.34,WNW,299,0.0,0.0,78,0.00,,,0.01,Wunderground v.1.15,2013-01-25 22:01:00,
2013-01-25 15:06:00,34.0,27.9,30.34,WNW,299,0.0,2.0,78,0.00,,,0.01,Wunderground v.1.15,2013-01-25 22:06:00,
2013-01-25 15:11:00,34.0,27.9,30.34,WNW,299,0.0,3.0,78,0.00,,,0.01,Wunderground v.1.15,2013-01-25 22:11:00,
2013-01-25 15:16:00,34.1,28.0,30.33,WNW,299,1.0,3.0,78,0.00,,,0.01,Wunderground v.1.15,2013-01-25 22:16:00,
2013-01-25 15:21:00,34.1,28.0,30.33,WNW,299,0.0,2.0,78,0.00,,,0.01,Wunderground v.1.15,2013-01-25 22:21:00,
2013-01-25 15:26:00,34.1,28.0,30.33,WNW,299,0.0,2.0,78,0.00,,,0.01,Wunderground v.1.15,2013-01-25 22:26:00,
2013-01-25 15:31:00,34.1,28.0,30.33,WNW,299,1.0,4.0,78,0.00,,,0.01,Wunderground v.1.15,2013-01-25 22:31:00,
2013-01-25 15:36:00,34.3,28.2,30.33,WNW,299,0.0,4.0,78,0.00,,,0.01,Wunderground v.1.15,2013-01-25 22:36:00,
2013-01-25 15:41:00,34.3,28.2,30.33,WNW,299,0.0,2.0,78,0.00,,,0.01,Wunderground v.1.15,2013-01-25 22:41:00,
2013-01-25 15:46:00,34.3,28.2,30.33,WNW,299,0.0,3.0,78,0.00,,,0.01,Wunderground v.1.15,2013-01-25 22:46:00,
2013-01-25 15:51:00,34.4,28.2,30.33,WNW,299,1.0,1.0,78,0.00,,,0.01,Wunderground v.1.15,2013-01-25 22:51:00,
2013-01-25 15:56:00,34.4,28.2,30.33,WNW,300,2.0,4.0,78,0.00,,,0.01,Wunderground v.1.15,2013-01-25 22:56:00,
2013-01-25 16:01:00,34.6,28.4,30.32,WNW,300,0.0,2.0,78,0.00,,,0.01,Wunderground v.1.15,2013-01-25 23:01:00,
2013-01-25 16:06:00,34.4,28.2,30.32,WNW,300,0.0,2.0,78,0.00,,,0.01,Wunderground v.1.15,2013-01-25 23:06:00,
2013-01-25 16:11:00,34.3,28.2,30.32,WNW,300,1.0,3.0,78,0.00,,,0.01,Wunderground v.1.15,2013-01-25 23:11:00,
2013-01-25 16:16:00,34.1,28.0,30.33,WNW,300,3.0,3.0,78,0.00,,,0.01,Wunderground v.1.15,2013-01-25 23:16:00,
2013-01-25 16:21:00,34.1,28.0,30.33,WNW,300,1.0,2.0,78,0.00,,,0.01,Wunderground v.1.15,2013-01-25 23:21:00,
2013-01-25 16:26:00,34.0,28.2,30.33,WNW,300,0.0,2.0,79,0.00,,,0.01,Wunderground v.1.15,2013-01-25 23:26:00,
2013-01-25 16:32:00,34.0,28.2,30.33,WNW,300,0.0,0.0,79,0.00,,,0.01,Wunderground v.1.15,2013-01-25 23:32:00,
2013-01-25 16:37:00,33.8,28.0,30.33,WNW,300,1.0,2.0,79,0.00,,,0.01,Wunderground v.1.15,2013-01-25 23:37:00,
2013-01-25 16:42:00,33.7,27.9,30.33,WNW,300,0.0,1.0,79,0.00,,,0.01,Wunderground v.1.15,2013-01-25 23:42:00,
2013-01-25 16:47:00,33.7,28.2,30.33,WNW,300,0.0,1.0,80,0.00,,,0.01,Wunderground v.1.15,2013-01-25 23:47:00,
2013-01-25 16:52:00,33.7,28.2,30.33,WNW,300,0.0,0.0,80,0.00,,,0.01,Wunderground v.1.15,2013-01-25 23:52:00,
2013-01-25 16:57:00,33.5,28.0,30.33,WNW,300,0.0,0.0,80,0.00,,,0.01,Wunderground v.1.15,2013-01-25 23:57:00,
2013-01-25 17:02:00,33.5,28.0,30.33,WNW,300,0.0,0.0,80,0.00,,,0.01,Wunderground v.1.15,2013-01-26 00:02:00,
2013-01-25 17:07:00,33.4,27.9,30.33,WNW,300,0.0,0.0,80,0.00,,,0.01,Wunderground v.1.15,2013-01-26 00:07:00,
2013-01-25 17:12:00,33.4,27.9,30.33,WNW,300,0.0,0.0,80,0.00,,,0.01,Wunderground v.1.15,2013-01-26 00:12:00,
2013-01-25 17:17:00,33.4,28.2,30.34,WNW,300,0.0,0.0,81,0.00,,,0.01,Wunderground v.1.15,2013-01-26 00:17:00,
2013-01-25 17:22:00,33.4,28.2,30.34,WNW,300,0.0,0.0,81,0.00,,,0.01,Wunderground v.1.15,2013-01-26 00:22:00,
2013-01-25 17:27:00,33.2,28.0,30.34,WNW,300,0.0,0.0,81,0.00,,,0.01,Wunderground v.1.15,2013-01-26 00:27:00,
2013-01-25 17:32:00,33.2,28.0,30.34,WNW,300,0.0,0.0,81,0.00,,,0.01,Wunderground v.1.15,2013-01-26 00:32:00,
2013-01-25 17:37:00,33.2,28.0,30.34,WNW,300,0.0,0.0,81,0.00,,,0.01,Wunderground v.1.15,2013-01-26 00:37:00,
2013-01-25 17:42:00,33.1,28.2,30.34,WNW,300,0.0,0.0,82,0.00,,,0.01,Wunderground v.1.15,2013-01-26 00:42:00,
2013-01-25 17:47:00,32.9,28.0,30.33,WNW,300,0.0,0.0,82,0.00,,,0.01,Wunderground v.1.15,2013-01-26 00:47:00,
2013-01-25 17:52:00,32.9,28.3,30.33,WNW,300,0.0,0.0,83,0.00,,,0.01,Wunderground v.1.15,2013-01-26 00:52:00,
2013-01-25 17:57:00,32.8,28.2,30.33,WNW,300,0.0,0.0,83,0.00,,,0.01,Wunderground v.1.15,2013-01-26 00:57:00,
2013-01-25 18:02:00,32.7,28.4,30.33,WNW,300,0.0,0.0,84,0.00,,,0.01,Wunderground v.1.15,2013-01-26 01:02:00,
2013-01-25 18:07:00,32.5,28.2,30.33,WNW,300,0.0,0.0,84,0.00,,,0.01,Wunderground v.1.15,2013-01-26 01:07:00,
2013-01-25 18:12:00,32.5,28.2,30.33,WNW,300,0.0,0.0,84,0.00,,,0.01,Wunderground v.1.15,2013-01-26 01:12:00,
2013-01-25 18:17:00,32.5,28.5,30.33,WNW,300,0.0,0.0,85,0.00,,,0.01,Wunderground v.1.15,2013-01-26 01:17:00,
2013-01-25 18:22:00,32.5,28.5,30.33,WNW,300,0.0,0.0,85,0.00,,,0.01,Wunderground v.1.15,2013-01-26 01:22:00,
2013-01-25 18:27:00,32.5,28.5,30.33,WNW,300,0.0,0.0,85,0.00,,,0.01,Wunderground v.1.15,2013-01-26 01:27:00,
2013-01-25 18:32:00,32.5,28.5,30.33,WNW,300,0.0,0.0,85,0.00,,,0.01,Wunderground v.1.15,2013-01-26 01:32:00,
2013-01-25 18:37:00,32.4,28.7,30.33,WNW,300,0.0,0.0,86,0.00,,,0.01,Wunderground v.1.15,2013-01-26 01:37:00,
2013-01-25 18:42:00,32.4,28.7,30.33,WNW,300,0.0,0.0,86,0.00,,,0.01,Wunderground v.1.15,2013-01-26 01:42:00,
2013-01-25 18:47:00,32.4,28.7,30.34,WNW,300,0.0,0.0,86,0.00,,,0.01,Wunderground v.1.15,2013-01-26 01:47:00,
2013-01-25 18:52:00,32.2,28.5,30.34,WNW,300,0.0,0.0,86,0.00,,,0.01,Wunderground v.1.15,2013-01-26 01:52:00,
2013-01-25 18:57:00,32.2,28.5,30.34,WNW,300,0.0,0.0,86,0.00,,,0.01,Wunderground v.1.15,2013-01-26 01:57:00,
2013-01-25 19:02:00,32.2,28.5,30.34,WNW,300,0.0,0.0,86,0.00,,,0.01,Wunderground v.1.15,2013-01-26 02:02:00,
2013-01-25 19:07:00,32.2,28.8,30.34,WNW,300,0.0,0.0,87,0.00,,,0.01,Wunderground v.1.15,2013-01-26 02:07:00,
2013-01-25 19:12:00,32.2,28.8,30.34,WNW,300,0.0,0.0,87,0.00,,,0.01,Wunderground v.1.15,2013-01-26 02:12:00,
2013-01-25 19:17:00,32.2,28.8,30.34,WNW,300,0.0,0.0,87,0.00,,,0.01,Wunderground v.1.15,2013-01-26 02:17:00,
2013-01-25 19:22:00,32.2,28.8,30.34,WNW,300,0.0,0.0,87,0.00,,,0.01,Wunderground v.1.15,2013-01-26 02:22:00,
2013-01-25 19:27:00,32.2,28.8,30.34,WNW,300,0.0,0.0,87,0.00,,,0.01,Wunderground v.1.15,2013-01-26 02:27:00,
2013-01-25 19:32:00,32.1,28.7,30.34,WNW,300,0.0,0.0,87,0.00,,,0.01,Wunderground v.1.15,2013-01-26 02:32:00,
2013-01-25 19:37:00,32.1,28.7,30.34,WNW,300,0.0,0.0,87,0.00,,,0.01,Wunderground v.1.15,2013-01-26 02:37:00,
2013-01-25 19:42:00,32.1,28.7,30.34,WNW,300,0.0,0.0,87,0.00,,,0.01,Wunderground v.1.15,2013-01-26 02:42:00,
2013-01-25 19:47:00,32.1,28.9,30.34,WNW,299,0.0,0.0,88,0.00,,,0.01,Wunderground v.1.15,2013-01-26 02:47:00,
2013-01-25 19:52:00,32.1,28.9,30.34,WNW,300,0.0,0.0,88,0.00,,,0.01,Wunderground v.1.15,2013-01-26 02:52:00,
2013-01-25 19:57:00,32.1,28.9,30.34,WNW,300,0.0,0.0,88,0.00,,,0.01,Wunderground v.1.15,2013-01-26 02:57:00,
2013-01-25 20:02:00,32.1,28.9,30.34,WNW,300,0.0,0.0,88,0.00,,,0.01,Wunderground v.1.15,2013-01-26 03:02:00,
2013-01-25 20:07:00,32.1,28.9,30.34,WNW,300,0.0,0.0,88,0.00,,,0.01,Wunderground v.1.15,2013-01-26 03:07:00,
2013-01-25 20:12:00,32.1,28.9,30.34,WNW,300,0.0,0.0,88,0.00,,,0.01,Wunderground v.1.15,2013-01-26 03:12:00,
2013-01-25 20:17:00,32.1,28.9,30.33,WNW,300,0.0,0.0,88,0.00,,,0.01,Wunderground v.1.15,2013-01-26 03:17:00,
2013-01-25 20:22:00,32.1,29.2,30.33,WNW,300,0.0,0.0,89,0.00,,,0.01,Wunderground v.1.15,2013-01-26 03:22:00,
2013-01-25 20:27:00,32.1,29.2,30.33,WNW,300,0.0,0.0,89,0.00,,,0.01,Wunderground v.1.15,2013-01-26 03:27:00,
2013-01-25 20:32:00,32.1,29.2,30.33,WNW,300,0.0,0.0,89,0.00,,,0.01,Wunderground v.1.15,2013-01-26 03:32:00,
2013-01-25 20:37:00,32.1,29.2,30.33,WNW,300,0.0,0.0,89,0.00,,,0.01,Wunderground v.1.15,2013-01-26 03:37:00,
2013-01-25 20:42:00,32.1,29.2,30.33,WNW,300,0.0,0.0,89,0.00,,,0.01,Wunderground v.1.15,2013-01-26 03:42:00,
2013-01-25 20:47:00,32.1,29.2,30.32,WNW,300,0.0,0.0,89,0.00,,,0.01,Wunderground v.1.15,2013-01-26 03:47:00,
2013-01-25 20:52:00,32.1,29.2,30.32,WNW,300,0.0,0.0,89,0.00,,,0.01,Wunderground v.1.15,2013-01-26 03:52:00,
2013-01-25 20:57:00,32.1,29.2,30.32,WNW,300,0.0,0.0,89,0.00,,,0.01,Wunderground v.1.15,2013-01-26 03:57:00,
2013-01-25 21:02:00,32.1,29.2,30.33,WNW,300,0.0,0.0,89,0.00,,,0.01,Wunderground v.1.15,2013-01-26 04:02:00,
2013-01-25 21:07:00,32.1,29.2,30.33,WNW,300,0.0,0.0,89,0.00,,,0.01,Wunderground v.1.15,2013-01-26 04:07:00,
2013-01-25 21:12:00,32.1,29.2,30.33,WNW,300,0.0,0.0,89,0.00,,,0.01,Wunderground v.1.15,2013-01-26 04:12:00,
2013-01-25 21:17:00,32.1,29.2,30.32,WNW,300,0.0,0.0,89,0.00,,,0.01,Wunderground v.1.15,2013-01-26 04:17:00,
2013-01-25 21:22:00,32.1,29.2,30.32,WNW,300,0.0,0.0,89,0.00,,,0.01,Wunderground v.1.15,2013-01-26 04:22:00,
2013-01-25 21:27:00,32.1,29.2,30.32,WNW,300,0.0,0.0,89,0.00,,,0.01,Wunderground v.1.15,2013-01-26 04:27:00,
2013-01-25 21:32:00,32.1,29.2,30.32,WNW,300,0.0,0.0,89,0.00,,,0.01,Wunderground v.1.15,2013-01-26 04:32:00,
2013-01-25 21:37:00,32.1,29.2,30.32,WNW,300,0.0,0.0,89,0.00,,,0.01,Wunderground v.1.15,2013-01-26 04:37:00,
2013-01-25 21:42:00,32.1,29.2,30.32,WNW,300,0.0,0.0,89,0.00,,,0.01,Wunderground v.1.15,2013-01-26 04:42:00,
2013-01-25 21:47:00,32.1,29.2,30.32,WNW,300,0.0,0.0,89,0.00,,,0.01,Wunderground v.1.15,2013-01-26 04:47:00,
2013-01-25 21:52:00,32.1,29.2,30.32,WNW,300,0.0,0.0,89,0.00,,,0.01,Wunderground v.1.15,2013-01-26 04:52:00,
2013-01-25 21:57:00,32.1,29.2,30.32,WNW,300,0.0,0.0,89,0.00,,,0.01,Wunderground v.1.15,2013-01-26 04:57:00,
2013-01-25 22:00:00,32.1,29.2,30.32,WNW,300,0.0,0.0,89,0.00,,,0.01,Wunderground v.1.15,2013-01-26 05:00:00,
2013-01-25 22:01:00,32.1,29.2,30.32,WNW,300,0.0,0.0,89,0.00,,,0.01,Wunderground v.1.15,2013-01-26 05:01:00,
2013-01-25 22:02:00,32.1,29.2,30.32,WNW,300,0.0,0.0,89,0.00,,,0.01,Wunderground v.1.15,2013-01-26 05:02:00,
2013-01-25 22:07:00,32.1,29.2,30.32,WNW,300,0.0,0.0,89,0.00,,,0.01,Wunderground v.1.15,2013-01-26 05:07:00,
2013-01-25 22:12:00,32.1,29.5,30.32,WNW,300,0.0,0.0,90,0.00,,,0.01,Wunderground v.1.15,2013-01-26 05:12:00,
2013-01-25 22:17:00,32.1,29.5,30.31,WNW,300,0.0,0.0,90,0.00,,,0.01,Wunderground v.1.15,2013-01-26 05:17:00,
2013-01-25 22:22:00,32.1,29.5,30.31,WNW,300,0.0,0.0,90,0.00,,,0.01,Wunderground v.1.15,2013-01-26 05:22:00,
2013-01-25 22:27:00,32.1,29.5,30.31,WNW,300,0.0,0.0,90,0.00,,,0.01,Wunderground v.1.15,2013-01-26 05:27:00,
2013-01-25 22:32:00,32.1,29.5,30.31,WNW,300,0.0,0.0,90,0.00,,,0.01,Wunderground v.1.15,2013-01-26 05:32:00,
2013-01-25 22:37:00,32.1,29.5,30.31,WNW,300,0.0,0.0,90,0.00,,,0.01,Wunderground v.1.15,2013-01-26 05:37:00,
2013-01-25 22:42:00,32.1,29.5,30.31,WNW,300,0.0,0.0,90,0.00,,,0.01,Wunderground v.1.15,2013-01-26 05:42:00,
2013-01-25 22:47:00,32.1,29.5,30.31,WNW,300,0.0,0.0,90,0.00,,,0.01,Wunderground v.1.15,2013-01-26 05:47:00,
2013-01-25 22:52:00,32.1,29.5,30.31,WNW,300,0.0,0.0,90,0.00,,,0.01,Wunderground v.1.15,2013-01-26 05:52:00,
2013-01-25 22:57:00,32.1,29.5,30.31,WNW,300,0.0,0.0,90,0.00,,,0.01,Wunderground v.1.15,2013-01-26 05:57:00,
2013-01-25 23:02:00,32.1,29.5,30.31,WNW,300,0.0,0.0,90,0.00,,,0.01,Wunderground v.1.15,2013-01-26 06:02:00,
2013-01-25 23:07:00,32.1,29.5,30.31,WNW,300,0.0,0.0,90,0.00,,,0.01,Wunderground v.1.15,2013-01-26 06:07:00,
2013-01-25 23:12:00,32.1,29.5,30.31,WNW,300,0.0,0.0,90,0.00,,,0.01,Wunderground v.1.15,2013-01-26 06:12:00,
2013-01-25 23:17:00,32.1,29.5,30.29,WNW,300,0.0,0.0,90,0.00,,,0.01,Wunderground v.1.15,2013-01-26 06:17:00,
2013-01-25 23:22:00,32.1,29.5,30.29,WNW,300,0.0,0.0,90,0.00,,,0.01,Wunderground v.1.15,2013-01-26 06:22:00,
2013-01-25 23:27:00,32.1,29.5,30.29,WNW,300,0.0,0.0,90,0.00,,,0.01,Wunderground v.1.15,2013-01-26 06:27:00,
2013-01-25 23:32:00,32.1,29.5,30.29,WNW,300,0.0,0.0,90,0.00,,,0.01,Wunderground v.1.15,2013-01-26 06:32:00,
2013-01-25 23:37:00,32.1,29.5,30.29,WNW,300,0.0,0.0,90,0.00,,,0.01,Wunderground v.1.15,2013-01-26 06:37:00,
2013-01-25 23:42:00,32.1,29.5,30.29,WNW,300,0.0,0.0,90,0.00,,,0.01,Wunderground v.1.15,2013-01-26 06:42:00,
2013-01-25 23:47:00,32.1,29.5,30.29,WNW,300,0.0,0.0,90,0.00,,,0.01,Wunderground v.1.15,2013-01-26 06:47:00,
2013-01-25 23:52:00,32.2,29.6,30.29,WNW,300,0.0,0.0,90,0.00,,,0.01,Wunderground v.1.15,2013-01-26 06:52:00,
2013-01-25 23:57:00,32.2,29.6,30.29,WNW,300,0.0,0.0,90,0.00,,,0.01,Wunderground v.1.15,2013-01-26 06:57:00,